Time;durP1;ratioP1;P1;durP2;ratioP2;P2;SDS_P1;SDS_P2;PMS_P1;PMS_P2;Temp;Humidity;BMP_temperature;BMP_pressure;BME280_temperature;BME280_humidity;BME280_pressure;Samples;Min_cycle;Max_cycle;Signal;HPM_P1;HPM_P2
2022/01/11 00:01:21;;;;;;;29.85;13.75;;;1.70;99.90;;;;;;5017693;28;20110;-81
2022/01/11 00:03:46;;;;;;;24.20;13.50;;;1.70;99.90;;;;;;5017688;28;20587;-81
2022/01/11 00:06:32;;;;;;;29.92;12.85;;;1.70;99.90;;;;;;5018266;28;20144;-80
2022/01/11 00:09:07;;;;;;;34.30;14.93;;;1.70;99.90;;;;;;5017437;28;20071;-81
2022/01/11 00:11:33;;;;;;;31.20;13.00;;;1.70;99.90;;;;;;5015981;28;20060;-80
2022/01/11 00:13:59;;;;;;;28.23;14.95;;;1.70;99.90;;;;;;5035803;28;20053;-81
2022/01/11 00:16:24;;;;;;;23.50;14.52;;;1.70;99.90;;;;;;5017500;28;20048;-80
2022/01/11 00:18:50;;;;;;;35.72;14.68;;;1.80;99.90;;;;;;5036216;28;20094;-80
2022/01/11 00:21:15;;;;;;;26.42;14.77;;;1.70;99.90;;;;;;5018180;28;20059;-81
2022/01/11 00:26:07;;;;;;;30.70;13.85;;;1.80;99.90;;;;;;5017702;28;20044;-81
2022/01/11 00:28:32;;;;;;;35.03;13.63;;;1.80;99.90;;;;;;5018609;28;20656;-81
2022/01/11 00:30:58;;;;;;;35.20;13.60;;;1.80;99.90;;;;;;5036561;28;20040;-81
2022/01/11 00:33:34;;;;;;;20.65;13.50;;;1.80;99.90;;;;;;5036354;28;20409;-81
2022/01/11 00:36:00;;;;;;;17.60;12.70;;;1.80;99.90;;;;;;5019437;28;20593;-81
2022/01/11 00:38:31;;;;;;;26.20;14.38;;;1.80;99.90;;;;;;5037639;28;20212;-80
2022/01/11 00:41:00;;;;;;;28.17;13.63;;;1.80;99.90;;;;;;5018443;28;20122;-80
2022/01/11 00:43:28;;;;;;;27.70;14.85;;;1.80;99.90;;;;;;5037861;28;20809;-80
2022/01/11 00:45:56;;;;;;;21.17;13.07;;;1.80;99.90;;;;;;5023177;28;20041;-80
2022/01/11 00:48:22;;;;;;;17.23;11.32;;;1.70;99.90;;;;;;5042164;28;20048;-80
2022/01/11 00:50:49;;;;;;;20.70;13.45;;;1.70;99.90;;;;;;5023894;28;20080;-80
2022/01/11 00:53:15;;;;;;;17.45;12.63;;;1.70;99.90;;;;;;5040868;28;20045;-81
2022/01/11 00:55:42;;;;;;;14.20;11.40;;;1.60;99.90;;;;;;5023279;28;20052;-81
2022/01/11 00:58:08;;;;;;;19.50;12.52;;;1.70;99.90;;;;;;5022991;28;20084;-81
2022/01/11 01:00:36;;;;;;;16.27;10.88;;;1.60;99.90;;;;;;5023051;28;20059;-80
2022/01/11 01:03:02;;;;;;;21.67;11.75;;;1.50;99.90;;;;;;5020013;28;20061;-81
2022/01/11 01:05:28;;;;;;;24.27;11.70;;;1.50;99.90;;;;;;5021189;28;20052;-80
2022/01/11 01:07:54;;;;;;;19.15;12.50;;;1.50;99.90;;;;;;5038547;28;20132;-81
2022/01/11 01:10:29;;;;;;;19.35;11.80;;;1.40;99.90;;;;;;5040076;28;20045;-81
2022/01/11 01:12:57;;;;;;;21.63;13.70;;;1.40;99.90;;;;;;5023082;28;20056;-80
2022/01/11 01:15:24;;;;;;;23.67;13.00;;;1.40;99.90;;;;;;5040416;28;20103;-80
2022/01/11 01:17:50;;;;;;;27.98;13.63;;;1.40;99.90;;;;;;5040159;28;20082;-80
2022/01/11 01:20:16;;;;;;;37.88;14.07;;;1.30;99.90;;;;;;5022726;28;20675;-81
2022/01/11 01:22:42;;;;;;;30.63;14.63;;;1.20;99.90;;;;;;5022369;28;20472;-80
2022/01/11 01:25:08;;;;;;;30.75;12.63;;;1.30;99.90;;;;;;5021806;28;20055;-80
2022/01/11 01:27:34;;;;;;;32.97;12.98;;;1.90;99.90;;;;;;5022123;28;20051;-81
2022/01/11 01:30:02;;;;;;;22.58;13.93;;;1.20;99.90;;;;;;5040303;28;20057;-81
2022/01/11 01:32:28;;;;;;;25.30;13.98;;;1.20;99.90;;;;;;5021847;28;20060;-80
2022/01/11 01:34:56;;;;;;;21.48;14.88;;;1.20;99.90;;;;;;5040427;28;20049;-81
2022/01/11 01:37:21;;;;;;;20.60;13.32;;;1.20;99.90;;;;;;5021302;28;20052;-80
2022/01/11 01:39:47;;;;;;;25.23;14.10;;;1.20;99.90;;;;;;5022160;28;20049;-80
2022/01/11 01:42:12;;;;;;;20.63;13.65;;;1.20;99.90;;;;;;5038726;28;20082;-80
2022/01/11 01:44:40;;;;;;;26.48;14.55;;;1.30;99.90;;;;;;5039871;28;20322;-80
2022/01/11 01:47:08;;;;;;;23.73;15.10;;;1.20;99.90;;;;;;5021783;28;20602;-81
2022/01/11 01:49:37;;;;;;;33.22;16.08;;;1.20;99.90;;;;;;5020077;28;20082;-81
2022/01/11 01:52:03;;;;;;;25.27;14.07;;;1.30;99.90;;;;;;5021394;28;20060;-82
2022/01/11 01:54:29;;;;;;;28.73;14.07;;;1.30;99.90;;;;;;5021143;28;20045;-82
2022/01/11 01:56:55;;;;;;;24.35;15.07;;;1.30;99.90;;;;;;5037999;28;20067;-82
2022/01/11 01:59:21;;;;;;;30.70;15.27;;;1.30;99.90;;;;;;5020086;28;20053;-82
2022/01/11 02:01:48;;;;;;;23.10;14.85;;;1.40;99.90;;;;;;5021236;28;20052;-81
2022/01/11 02:04:16;;;;;;;29.45;16.08;;;1.40;99.90;;;;;;5038506;28;20057;-82
2022/01/11 02:06:41;;;;;;;18.23;12.80;;;1.40;99.90;;;;;;5020893;28;20049;-82
2022/01/11 02:09:10;;;;;;;29.98;15.77;;;1.40;99.90;;;;;;5039138;28;20727;-82
2022/01/11 02:11:35;;;;;;;33.75;14.55;;;1.40;99.90;;;;;;5021206;28;20044;-80
2022/01/11 02:14:01;;;;;;;21.73;16.27;;;1.40;99.90;;;;;;5021622;28;20053;-79
2022/01/11 02:16:26;;;;;;;27.02;14.00;;;1.50;99.90;;;;;;5021189;28;20055;-79
2022/01/11 02:18:53;;;;;;;42.22;16.55;;;1.50;99.90;;;;;;5021347;28;20059;-80
2022/01/11 02:21:20;;;;;;;49.28;18.00;;;1.50;99.90;;;;;;5021583;28;20051;-79
2022/01/11 02:23:46;;;;;;;46.38;16.77;;;1.50;99.90;;;;;;5039584;28;20068;-80
2022/01/11 02:26:12;;;;;;;88.88;19.48;;;1.50;99.90;;;;;;5021148;28;20045;-80
2022/01/11 02:28:37;;;;;;;60.03;16.70;;;1.40;99.90;;;;;;5020878;28;20140;-80
2022/01/11 02:31:07;;;;;;;44.30;16.35;;;1.40;99.90;;;;;;5039384;28;20044;-80
2022/01/11 02:33:44;;;;;;;34.13;14.57;;;1.40;99.90;;;;;;5020751;28;20092;-79
2022/01/11 02:36:22;;;;;;;57.90;18.30;;;1.30;99.90;;;;;;5039646;28;20102;-79
2022/01/11 02:38:50;;;;;;;118.47;21.70;;;1.40;99.90;;;;;;5020216;28;20416;-79
2022/01/11 02:41:16;;;;;;;34.20;14.73;;;1.40;99.90;;;;;;5017365;28;20160;-79
2022/01/11 02:43:47;;;;;;;81.90;19.67;;;1.40;99.90;;;;;;5018499;28;20136;-80
2022/01/11 02:46:15;;;;;;;63.22;17.67;;;1.40;99.90;;;;;;5017894;28;20164;-79
2022/01/11 02:48:41;;;;;;;70.68;20.25;;;1.30;99.90;;;;;;5018232;28;20457;-79
2022/01/11 02:51:07;;;;;;;67.57;20.27;;;1.30;99.90;;;;;;5017632;28;20077;-79
2022/01/11 02:53:44;;;;;;;91.72;19.70;;;1.30;99.90;;;;;;5016760;28;20539;-79
2022/01/11 02:56:10;;;;;;;90.97;22.15;;;1.30;99.90;;;;;;5019230;28;20152;-79
2022/01/11 02:58:36;;;;;;;43.85;16.98;;;1.20;99.90;;;;;;5018314;28;20041;-79
2022/01/11 03:01:02;;;;;;;98.68;20.73;;;1.20;99.90;;;;;;5016563;28;20493;-79
2022/01/11 03:03:28;;;;;;;100.40;23.13;;;1.30;99.90;;;;;;5017007;28;20905;-80
2022/01/11 03:05:57;;;;;;;89.03;22.48;;;1.20;99.90;;;;;;5017492;28;20049;-80
2022/01/11 03:08:24;;;;;;;60.65;18.27;;;1.20;99.90;;;;;;5016201;28;20053;-80
2022/01/11 03:10:51;;;;;;;49.97;18.20;;;1.20;99.90;;;;;;5017051;28;20054;-80
2022/01/11 03:13:17;;;;;;;47.28;18.30;;;1.10;99.90;;;;;;5017953;28;20057;-80
2022/01/11 03:15:44;;;;;;;66.57;22.50;;;1.20;99.90;;;;;;5017261;28;20041;-81
2022/01/11 03:18:11;;;;;;;53.42;19.00;;;1.20;99.90;;;;;;5017502;28;20089;-80
2022/01/11 03:20:38;;;;;;;42.22;18.33;;;1.20;99.90;;;;;;5018212;28;20060;-80
2022/01/11 03:23:05;;;;;;;40.72;17.75;;;1.20;99.90;;;;;;5018018;28;20049;-80
2022/01/11 03:25:31;;;;;;;48.65;19.83;;;1.20;99.90;;;;;;5017643;28;20104;-80
2022/01/11 03:27:57;;;;;;;45.50;19.85;;;1.20;99.90;;;;;;5016947;28;20056;-80
2022/01/11 03:30:23;;;;;;;25.27;17.17;;;1.20;99.90;;;;;;5017361;28;20049;-80
2022/01/11 03:32:48;;;;;;;34.90;17.88;;;1.20;99.90;;;;;;5017534;28;20154;-80
2022/01/11 03:35:15;;;;;;;30.10;18.13;;;1.30;99.90;;;;;;5016970;28;20500;-80
2022/01/11 03:37:42;;;;;;;47.05;19.50;;;1.30;99.90;;;;;;5017762;28;20059;-80
2022/01/11 03:40:14;;;;;;;51.30;18.95;;;1.30;99.90;;;;;;5016557;28;20065;-80
2022/01/11 03:42:39;;;;;;;39.08;18.65;;;1.40;99.90;;;;;;5033975;28;20053;-80
2022/01/11 03:45:07;;;;;;;27.58;16.85;;;1.40;99.90;;;;;;5020371;28;20087;-80
2022/01/11 03:47:33;;;;;;;44.63;18.33;;;1.40;99.90;;;;;;5038284;28;20073;-80
2022/01/11 03:49:58;;;;;;;36.35;17.60;;;1.50;99.90;;;;;;5037454;28;20758;-80
2022/01/11 03:52:25;;;;;;;37.08;16.52;;;1.50;99.90;;;;;;5038399;28;20057;-80
2022/01/11 03:57:24;;;;;;;30.05;20.27;;;1.50;99.90;;;;;;5037140;28;20059;-80
2022/01/11 03:59:50;;;;;;;29.13;16.75;;;1.50;99.90;;;;;;5037941;28;20045;-80
2022/01/11 04:02:15;;;;;;;34.13;16.92;;;1.50;99.90;;;;;;5038054;28;20048;-80
2022/01/11 04:04:41;;;;;;;26.88;17.10;;;1.50;99.90;;;;;;5018949;28;20152;-79
2022/01/11 04:07:07;;;;;;;37.30;19.50;;;1.50;99.90;;;;;;5037435;28;20051;-80
2022/01/11 04:09:33;;;;;;;32.17;16.52;;;1.50;99.90;;;;;;5037458;28;20633;-80
2022/01/11 04:11:58;;;;;;;40.65;17.30;;;1.50;99.90;;;;;;5037348;28;20056;-80
2022/01/11 04:14:27;;;;;;;22.63;14.13;;;1.50;99.90;;;;;;5020233;28;20048;-80
2022/01/11 04:16:53;;;;;;;32.45;15.68;;;1.50;99.90;;;;;;5019240;28;20060;-80
2022/01/11 04:19:22;;;;;;;33.70;17.65;;;1.50;99.90;;;;;;5020563;28;20057;-80
2022/01/11 04:21:48;;;;;;;23.35;13.70;;;1.50;99.90;;;;;;5023642;28;20052;-79
2022/01/11 04:24:14;;;;;;;35.47;17.70;;;1.50;99.90;;;;;;5041484;28;20088;-79
2022/01/11 04:26:40;;;;;;;25.77;15.10;;;1.50;99.90;;;;;;5023421;28;20782;-80
2022/01/11 04:29:06;;;;;;;22.92;14.95;;;1.40;99.90;;;;;;5023877;28;20052;-80
2022/01/11 04:31:32;;;;;;;23.42;15.45;;;1.40;99.90;;;;;;5040691;28;20099;-80
2022/01/11 04:33:58;;;;;;;25.58;14.40;;;1.50;99.90;;;;;;5023752;28;20857;-80
2022/01/11 04:36:23;;;;;;;32.85;16.38;;;1.50;99.90;;;;;;5023365;28;20061;-80
2022/01/11 04:38:49;;;;;;;21.10;13.35;;;1.50;99.90;;;;;;5022921;28;20106;-80
2022/01/11 04:41:15;;;;;;;22.20;14.52;;;1.50;99.90;;;;;;5041812;28;20057;-79
2022/01/11 04:43:42;;;;;;;21.67;13.57;;;1.80;99.90;;;;;;5041874;28;20041;-79
2022/01/11 04:46:07;;;;;;;25.33;14.38;;;1.40;99.90;;;;;;5041083;28;20416;-79
2022/01/11 04:48:33;;;;;;;19.95;13.48;;;1.40;99.90;;;;;;5023750;28;20059;-79
2022/01/11 04:51:00;;;;;;;23.30;12.95;;;1.40;99.90;;;;;;5023090;28;20056;-79
2022/01/11 04:53:27;;;;;;;18.73;12.98;;;1.00;99.90;;;;;;5022307;28;20126;-80
2022/01/11 04:55:53;;;;;;;23.77;14.05;;;1.40;99.90;;;;;;5023146;28;20059;-80
2022/01/11 04:58:18;;;;;;;22.80;14.13;;;1.40;99.90;;;;;;5023253;28;20807;-80
2022/01/11 05:00:44;;;;;;;25.67;14.90;;;1.30;99.90;;;;;;5041120;28;20053;-79
2022/01/11 05:03:10;;;;;;;23.27;14.35;;;1.30;99.90;;;;;;5022857;28;20124;-80
2022/01/11 05:05:35;;;;;;;26.00;15.88;;;1.30;99.90;;;;;;5040787;28;20777;-79
2022/01/11 05:08:02;;;;;;;20.02;13.98;;;1.20;99.90;;;;;;5039732;28;20045;-79
2022/01/11 05:10:28;;;;;;;22.90;14.75;;;1.30;99.90;;;;;;5022675;28;20120;-79
2022/01/11 05:12:54;;;;;;;27.77;16.63;;;1.30;99.90;;;;;;5023025;28;20054;-79
2022/01/11 05:15:20;;;;;;;21.23;13.98;;;1.30;99.90;;;;;;5040347;28;20053;-79
2022/01/11 05:17:46;;;;;;;26.67;16.17;;;1.30;99.90;;;;;;5040341;28;20068;-79
2022/01/11 05:20:12;;;;;;;24.02;16.40;;;1.30;99.90;;;;;;5039490;28;20400;-79
2022/01/11 05:22:38;;;;;;;34.13;19.27;;;1.30;99.90;;;;;;5040228;28;20052;-79
2022/01/11 05:25:06;;;;;;;28.77;16.05;;;1.30;99.90;;;;;;5022355;28;20057;-79
2022/01/11 05:27:31;;;;;;;26.50;15.07;;;1.30;99.90;;;;;;5039698;28;20055;-79
2022/01/11 05:29:57;;;;;;;27.15;14.07;;;1.30;99.90;;;;;;5021990;28;20045;-79
2022/01/11 05:32:23;;;;;;;25.63;14.65;;;1.30;99.90;;;;;;5021464;28;20053;-79
2022/01/11 05:34:48;;;;;;;26.92;14.55;;;1.30;99.90;;;;;;5022411;28;20053;-79
2022/01/11 05:37:14;;;;;;;29.95;16.63;;;1.40;99.90;;;;;;5023137;28;20157;-79
2022/01/11 05:39:39;;;;;;;29.15;15.73;;;1.30;99.90;;;;;;5040083;28;20053;-79
2022/01/11 05:42:06;;;;;;;25.23;15.45;;;1.40;99.90;;;;;;5020874;28;20616;-79
2022/01/11 05:44:36;;;;;;;31.80;17.05;;;1.40;99.90;;;;;;5022263;28;20053;-79
2022/01/11 05:47:03;;;;;;;29.88;16.08;;;1.40;99.90;;;;;;5021784;28;20067;-79
2022/01/11 05:49:29;;;;;;;25.48;15.32;;;1.40;99.90;;;;;;5039617;28;20048;-78
2022/01/11 05:51:54;;;;;;;34.38;16.95;;;1.40;99.90;;;;;;5040058;28;20129;-79
2022/01/11 05:54:20;;;;;;;33.38;16.10;;;1.40;99.90;;;;;;5022207;28;20095;-79
2022/01/11 05:56:45;;;;;;;25.60;15.77;;;1.40;99.90;;;;;;5021849;28;20085;-79
2022/01/11 05:59:11;;;;;;;29.55;16.52;;;1.40;99.90;;;;;;5039705;28;20056;-79
2022/01/11 06:01:36;;;;;;;24.17;14.43;;;1.50;99.90;;;;;;5039765;28;20070;-79
2022/01/11 06:04:02;;;;;;;24.83;15.75;;;1.50;99.90;;;;;;5021311;28;20053;-79
2022/01/11 06:06:28;;;;;;;23.23;16.60;;;1.50;99.90;;;;;;5039724;28;20407;-79
2022/01/11 06:08:53;;;;;;;28.42;18.00;;;1.50;99.90;;;;;;5039336;28;20071;-79
2022/01/11 06:11:19;;;;;;;23.98;15.27;;;1.60;99.90;;;;;;5038625;28;20962;-79
2022/01/11 06:13:45;;;;;;;35.72;16.80;;;1.60;99.90;;;;;;5022191;28;20052;-80
2022/01/11 06:16:10;;;;;;;32.60;17.42;;;1.50;99.90;;;;;;5021720;28;20175;-79
2022/01/11 06:18:36;;;;;;;26.83;17.45;;;1.50;99.90;;;;;;5039199;28;20343;-79
2022/01/11 06:21:03;;;;;;;36.83;19.58;;;1.50;99.90;;;;;;5022342;28;20442;-79
2022/01/11 06:23:29;;;;;;;33.20;16.90;;;1.50;99.90;;;;;;5021666;28;20202;-79
2022/01/11 06:25:54;;;;;;;27.00;16.48;;;1.50;99.90;;;;;;5021965;28;20880;-79
2022/01/11 06:28:20;;;;;;;25.23;16.40;;;1.50;99.90;;;;;;5039141;28;20053;-79
2022/01/11 06:30:47;;;;;;;24.77;16.38;;;1.50;99.90;;;;;;5021104;28;20048;-79
2022/01/11 06:33:13;;;;;;;32.33;18.75;;;1.50;99.90;;;;;;5021934;28;20052;-79
2022/01/11 06:35:39;;;;;;;30.20;17.35;;;1.50;99.90;;;;;;5039503;28;20099;-79
2022/01/11 06:38:05;;;;;;;29.50;18.73;;;1.50;99.90;;;;;;5020955;28;20461;-79
2022/01/11 06:40:30;;;;;;;32.90;19.55;;;1.50;99.90;;;;;;5021564;28;20761;-79
2022/01/11 06:42:56;;;;;;;31.02;17.90;;;1.50;99.90;;;;;;5038431;28;20060;-79
2022/01/11 06:45:22;;;;;;;32.45;19.10;;;1.50;99.90;;;;;;5037961;28;20053;-79
2022/01/11 06:47:49;;;;;;;30.27;18.40;;;1.50;99.90;;;;;;5039061;28;20191;-80
2022/01/11 06:50:14;;;;;;;35.83;19.05;;;1.50;99.90;;;;;;5021328;28;20053;-80
2022/01/11 06:52:40;;;;;;;32.55;19.90;;;1.40;99.90;;;;;;5020372;28;20057;-80
2022/01/11 06:55:07;;;;;;;29.35;16.55;;;1.50;99.90;;;;;;5021463;28;20060;-80
2022/01/11 06:57:33;;;;;;;28.23;17.52;;;1.40;99.90;;;;;;5020967;28;20053;-80
2022/01/11 07:00:00;;;;;;;30.83;19.45;;;1.40;99.90;;;;;;5020151;28;20085;-80
2022/01/11 07:02:26;;;;;;;31.13;16.45;;;1.30;99.90;;;;;;5020513;28;20045;-81
2022/01/11 07:04:51;;;;;;;32.92;18.35;;;1.30;99.90;;;;;;5019802;28;20122;-79
2022/01/11 07:07:17;;;;;;;34.17;18.15;;;1.30;99.90;;;;;;5018192;28;20045;-80
2022/01/11 07:09:43;;;;;;;35.60;21.70;;;1.30;99.90;;;;;;5019074;28;20060;-79
2022/01/11 07:12:09;;;;;;;30.95;19.50;;;1.30;99.90;;;;;;5018100;28;20059;-80
2022/01/11 07:14:34;;;;;;;31.98;18.83;;;1.30;99.90;;;;;;5035588;28;20037;-80
2022/01/11 07:17:00;;;;;;;38.00;21.05;;;1.30;99.90;;;;;;5036068;28;20051;-79
2022/01/11 07:19:29;;;;;;;31.23;19.00;;;1.30;99.90;;;;;;5017153;28;20447;-79
2022/01/11 07:21:55;;;;;;;37.92;20.85;;;1.30;99.90;;;;;;5017118;28;20816;-79
2022/01/11 07:24:23;;;;;;;35.03;19.30;;;1.30;99.90;;;;;;5017778;28;20140;-78
2022/01/11 07:26:49;;;;;;;34.35;17.80;;;1.30;99.90;;;;;;5032397;28;20045;-79
2022/01/11 07:29:14;;;;;;;32.20;18.70;;;1.20;99.90;;;;;;5017935;28;20045;-79
2022/01/11 07:31:41;;;;;;;30.05;18.15;;;1.30;99.90;;;;;;5017536;28;20115;-79
2022/01/11 07:34:08;;;;;;;33.47;18.90;;;1.30;99.90;;;;;;5016932;28;20083;-80
2022/01/11 07:36:34;;;;;;;37.53;19.38;;;1.30;99.90;;;;;;5035884;28;20071;-79
2022/01/11 07:39:00;;;;;;;36.10;17.98;;;1.30;99.90;;;;;;5017677;28;20057;-79
2022/01/11 07:41:25;;;;;;;33.72;19.50;;;1.40;99.90;;;;;;5034887;28;20081;-79
2022/01/11 07:43:51;;;;;;;34.45;17.58;;;1.40;99.90;;;;;;5035821;28;20063;-79
2022/01/11 07:46:16;;;;;;;37.65;20.50;;;1.50;99.90;;;;;;5035672;28;20037;-79
2022/01/11 07:48:42;;;;;;;35.33;21.92;;;1.50;99.90;;;;;;5035539;28;20579;-79
2022/01/11 07:51:08;;;;;;;30.13;17.92;;;1.50;99.90;;;;;;5017762;28;20041;-79
2022/01/11 07:53:34;;;;;;;32.45;19.95;;;1.60;99.90;;;;;;5014822;28;20117;-80
2022/01/11 07:55:59;;;;;;;33.50;18.42;;;1.60;99.90;;;;;;5014470;28;20562;-79
2022/01/11 07:58:25;;;;;;;38.97;20.15;;;1.60;99.90;;;;;;5032599;28;20048;-80
2022/01/11 08:00:51;;;;;;;38.35;19.42;;;1.60;99.90;;;;;;5015945;28;20060;-79
2022/01/11 08:03:17;;;;;;;25.90;18.75;;;1.60;99.90;;;;;;5014938;28;20115;-79
2022/01/11 08:05:43;;;;;;;40.22;21.65;;;1.60;99.90;;;;;;5032703;28;20069;-79
2022/01/11 08:08:09;;;;;;;37.08;20.60;;;1.60;99.90;;;;;;5015242;28;20479;-79
2022/01/11 08:10:34;;;;;;;34.88;21.55;;;1.70;99.90;;;;;;5032357;28;20041;-79
2022/01/11 08:13:05;;;;;;;32.63;19.20;;;1.70;99.90;;;;;;5012693;28;20048;-79
2022/01/11 08:15:30;;;;;;;33.88;20.88;;;1.70;99.90;;;;;;5014715;28;20059;-79
2022/01/11 08:17:56;;;;;;;28.20;19.02;;;1.70;99.90;;;;;;5014158;28;20865;-79
2022/01/11 08:20:22;;;;;;;34.17;19.13;;;1.70;99.90;;;;;;5013520;28;20045;-80
2022/01/11 08:22:48;;;;;;;33.33;18.42;;;1.70;99.90;;;;;;5014552;28;20088;-79
2022/01/11 08:25:14;;;;;;;27.17;18.25;;;1.70;99.90;;;;;;5032787;28;20055;-78
2022/01/11 08:27:40;;;;;;;33.92;19.17;;;1.70;99.90;;;;;;5013333;28;20037;-79
2022/01/11 08:30:07;;;;;;;32.17;18.13;;;1.80;99.90;;;;;;5031083;28;20056;-79
2022/01/11 08:32:32;;;;;;;29.02;18.60;;;1.80;99.90;;;;;;5012245;28;20062;-79
2022/01/11 08:34:58;;;;;;;29.10;18.35;;;1.80;99.90;;;;;;5031040;28;20826;-80
2022/01/11 08:37:23;;;;;;;34.20;17.15;;;1.80;99.90;;;;;;5013324;28;20044;-80
2022/01/11 08:39:49;;;;;;;30.88;18.15;;;1.80;99.90;;;;;;5033666;28;20056;-80
2022/01/11 08:42:15;;;;;;;40.67;17.17;;;1.80;99.90;;;;;;5015265;28;20061;-80
2022/01/11 08:44:43;;;;;;;27.10;15.65;;;1.80;99.90;;;;;;5029498;28;20056;-80
2022/01/11 08:47:09;;;;;;;23.45;16.08;;;1.80;99.90;;;;;;5015555;28;20060;-80
2022/01/11 08:49:35;;;;;;;25.67;15.98;;;1.80;99.90;;;;;;5032161;28;20053;-80
2022/01/11 08:52:00;;;;;;;32.65;17.05;;;1.80;99.90;;;;;;5032503;28;20144;-80
2022/01/11 08:54:26;;;;;;;26.75;17.00;;;1.80;99.90;;;;;;5014108;28;20045;-80
2022/01/11 08:56:55;;;;;;;34.85;17.95;;;1.80;99.90;;;;;;5032307;28;20178;-80
2022/01/11 08:59:21;;;;;;;25.48;16.58;;;1.80;99.90;;;;;;5013137;28;20049;-80
2022/01/11 09:01:48;;;;;;;30.17;17.05;;;1.80;99.90;;;;;;5031788;28;20502;-79
2022/01/11 09:04:14;;;;;;;22.55;14.63;;;1.80;99.90;;;;;;5029510;28;20060;-80
2022/01/11 09:06:39;;;;;;;23.17;14.32;;;1.80;99.90;;;;;;5033473;28;20091;-80
2022/01/11 09:09:05;;;;;;;28.17;15.85;;;1.70;99.90;;;;;;5034621;28;20094;-80
2022/01/11 09:11:31;;;;;;;30.95;15.25;;;1.70;99.90;;;;;;5037197;28;20041;-80
2022/01/11 09:13:57;;;;;;;21.48;14.75;;;1.70;99.90;;;;;;5019296;28;20045;-81
2022/01/11 09:16:24;;;;;;;22.85;14.48;;;1.80;99.90;;;;;;5010895;28;20080;-81
2022/01/11 09:18:49;;;;;;;24.42;13.93;;;1.70;99.90;;;;;;5018212;28;20048;-81
2022/01/11 09:21:16;;;;;;;20.02;13.75;;;1.80;99.90;;;;;;5037911;28;20110;-81
2022/01/11 09:23:42;;;;;;;18.75;13.73;;;1.80;99.90;;;;;;5040130;28;20136;-81
2022/01/11 09:26:08;;;;;;;20.90;14.35;;;1.80;99.90;;;;;;5040298;28;20043;-81
2022/01/11 09:28:33;;;;;;;24.38;14.27;;;1.80;99.90;;;;;;5021832;28;20088;-80
2022/01/11 09:30:59;;;;;;;22.92;14.25;;;1.80;99.90;;;;;;5039282;28;20113;-80
2022/01/11 09:33:25;;;;;;;23.38;14.48;;;1.80;99.90;;;;;;5020058;28;20132;-81
2022/01/11 09:35:51;;;;;;;20.08;11.93;;;1.70;99.90;;;;;;5039169;28;20058;-80
2022/01/11 09:38:17;;;;;;;17.70;11.40;;;1.90;99.90;;;;;;5039021;28;20911;-81
2022/01/11 09:40:42;;;;;;;19.95;11.95;;;1.90;99.90;;;;;;5019929;28;20052;-80
2022/01/11 09:43:08;;;;;;;17.88;11.45;;;1.90;99.90;;;;;;5038656;28;20052;-80
2022/01/11 09:45:35;;;;;;;22.75;10.45;;;1.80;99.90;;;;;;5038854;28;20048;-80
2022/01/11 09:48:01;;;;;;;19.05;10.88;;;1.80;99.90;;;;;;5019564;28;20045;-81
2022/01/11 09:50:26;;;;;;;14.70;10.95;;;1.80;99.90;;;;;;5040058;28;20471;-80
2022/01/11 09:52:53;;;;;;;18.15;11.00;;;1.90;99.90;;;;;;5039984;28;20053;-80
2022/01/11 09:55:19;;;;;;;21.75;12.10;;;1.90;99.90;;;;;;5039543;28;20090;-81
2022/01/11 09:57:45;;;;;;;17.52;11.20;;;1.90;99.90;;;;;;5022315;28;20985;-80
2022/01/11 10:00:12;;;;;;;14.82;10.40;;;1.90;99.90;;;;;;5039618;28;20897;-80
2022/01/11 10:02:37;;;;;;;20.98;12.55;;;1.90;99.90;;;;;;5020761;28;20048;-80
2022/01/11 10:05:07;;;;;;;18.38;10.20;;;1.90;99.90;;;;;;5039286;28;20848;-80
2022/01/11 10:07:40;;;;;;;16.20;10.32;;;1.90;99.90;;;;;;5021035;28;20084;-81
2022/01/11 10:10:16;;;;;;;19.35;11.65;;;1.90;99.90;;;;;;5021512;28;20081;-80
2022/01/11 10:12:47;;;;;;;15.65;10.30;;;1.90;99.90;;;;;;5020574;28;20076;-80
2022/01/11 10:15:14;;;;;;;18.90;11.88;;;2.00;99.90;;;;;;5001487;28;20060;-81
2022/01/11 10:17:44;;;;;;;20.42;11.25;;;2.00;99.90;;;;;;4666502;28;10000625;-80
2022/01/11 10:20:20;;;;;;;21.17;13.73;;;2.00;99.90;;;;;;5032945;28;20095;-80
2022/01/11 10:22:59;;;;;;;16.73;10.07;;;2.00;99.90;;;;;;5016138;28;20178;-80
2022/01/11 10:25:26;;;;;;;15.02;10.90;;;2.00;99.90;;;;;;5016838;28;20078;-80
2022/01/11 10:27:58;;;;;;;14.07;10.48;;;2.10;99.90;;;;;;5034965;28;20084;-81
2022/01/11 10:30:25;;;;;;;20.27;11.77;;;2.20;99.90;;;;;;5035447;28;20142;-80
2022/01/11 10:32:52;;;;;;;20.67;10.52;;;2.20;99.90;;;;;;5017242;28;20053;-80
2022/01/11 10:35:19;;;;;;;17.70;9.88;;;2.30;99.90;;;;;;5016608;28;20067;-80
2022/01/11 10:38:07;;;;;;;14.25;10.18;;;2.30;99.90;;;;;;5031187;28;20427;-80
2022/01/11 10:40:38;;;;;;;16.42;10.20;;;2.30;99.90;;;;;;5012575;28;20056;-81
2022/01/11 10:43:06;;;;;;;15.93;10.82;;;2.30;99.90;;;;;;5031361;28;20064;-81
2022/01/11 10:45:33;;;;;;;18.85;11.43;;;2.30;99.90;;;;;;5032526;28;20049;-80
2022/01/11 10:48:11;;;;;;;15.57;11.07;;;2.30;99.90;;;;;;5015439;28;20174;-80
2022/01/11 10:50:45;;;;;;;17.85;10.02;;;2.20;99.90;;;;;;5014831;28;20250;-80
2022/01/11 10:53:13;;;;;;;12.65;9.20;;;2.20;99.90;;;;;;5033580;28;20056;-81
2022/01/11 10:55:39;;;;;;;15.10;9.88;;;2.20;99.90;;;;;;5004886;28;20048;-81
2022/01/11 10:58:07;;;;;;;13.27;9.23;;;2.20;99.90;;;;;;5026447;28;20563;-80
2022/01/11 11:00:39;;;;;;;17.55;10.52;;;2.20;99.90;;;;;;5016027;28;20063;-80
2022/01/11 11:03:10;;;;;;;12.98;9.85;;;2.20;99.90;;;;;;5014515;28;20139;-80
2022/01/11 11:05:47;;;;;;;19.75;10.23;;;2.30;99.90;;;;;;5013110;28;20946;-80
2022/01/11 11:08:21;;;;;;;14.15;9.95;;;2.30;99.90;;;;;;5031976;28;20843;-80
2022/01/11 11:11:01;;;;;;;16.13;9.55;;;2.30;99.90;;;;;;5013318;28;20059;-81
2022/01/11 11:13:32;;;;;;;15.57;10.73;;;2.40;99.90;;;;;;5033140;28;20171;-80
2022/01/11 11:16:07;;;;;;;18.98;11.25;;;2.40;99.90;;;;;;5014492;28;20057;-81
2022/01/11 11:18:38;;;;;;;12.85;10.27;;;2.50;99.90;;;;;;5014409;28;20587;-75
2022/01/11 11:21:26;;;;;;;13.13;9.77;;;2.50;99.90;;;;;;5014352;28;20161;-75
2022/01/11 11:24:00;;;;;;;14.55;9.95;;;2.60;99.90;;;;;;5032161;28;20056;-75
2022/01/11 11:26:28;;;;;;;19.17;10.30;;;2.70;99.90;;;;;;5017458;28;20294;-81
2022/01/11 11:28:55;;;;;;;16.05;10.02;;;2.70;99.90;;;;;;5034588;28;20467;-81
2022/01/11 11:31:21;;;;;;;16.95;10.63;;;2.80;99.90;;;;;;5013692;28;20065;-81
2022/01/11 11:33:47;;;;;;;17.20;10.25;;;2.90;99.90;;;;;;5032727;28;20065;-81
2022/01/11 11:36:14;;;;;;;16.13;9.73;;;3.00;99.90;;;;;;5015738;28;20685;-81
2022/01/11 11:38:52;;;;;;;15.15;10.05;;;3.10;99.90;;;;;;5016438;28;20065;-81
2022/01/11 11:41:19;;;;;;;15.35;9.65;;;3.10;99.90;;;;;;5032924;28;20078;-81
2022/01/11 11:44:30;;;;;;;17.23;9.02;;;3.20;99.90;;;;;;5016018;28;20093;-82
2022/01/11 11:47:02;;;;;;;14.55;9.32;;;3.40;99.90;;;;;;5030783;28;20061;-67
2022/01/11 11:49:45;;;;;;;16.58;9.45;;;3.60;99.90;;;;;;5013935;28;20674;-81
2022/01/11 11:52:31;;;;;;;19.08;10.50;;;3.70;99.90;;;;;;5014931;28;20127;-81
2022/01/11 11:55:11;;;;;;;14.05;9.07;;;3.80;99.90;;;;;;5033197;28;20064;-81
2022/01/11 11:57:40;;;;;;;16.67;9.00;;;3.80;99.90;;;;;;5015209;28;20158;-81
2022/01/11 12:00:06;;;;;;;12.77;9.07;;;3.80;99.90;;;;;;5015554;28;20102;-81
2022/01/11 12:02:40;;;;;;;16.20;9.23;;;3.80;99.90;;;;;;5033739;28;20049;-81
2022/01/11 12:05:10;;;;;;;16.73;9.18;;;3.80;99.90;;;;;;5015662;28;20056;-81
2022/01/11 12:07:42;;;;;;;14.48;9.80;;;3.90;99.90;;;;;;5016064;28;20037;-81
2022/01/11 12:10:15;;;;;;;11.43;9.32;;;3.90;99.90;;;;;;5016223;28;20143;-82
2022/01/11 12:12:50;;;;;;;12.85;9.32;;;4.00;99.90;;;;;;5034772;28;20110;-81
2022/01/11 12:15:21;;;;;;;16.70;9.27;;;4.10;99.90;;;;;;5015522;28;20064;-80
2022/01/11 12:17:48;;;;;;;20.15;9.20;;;4.20;99.90;;;;;;5035313;28;20612;-81
2022/01/11 12:20:50;;;;;;;15.35;10.10;;;4.30;99.90;;;;;;5016096;28;20060;-82
2022/01/11 12:23:38;;;;;;;11.75;8.40;;;4.40;99.90;;;;;;5017083;28;20118;-82
2022/01/11 12:26:19;;;;;;;18.27;8.65;;;4.50;99.90;;;;;;5002844;28;20061;-81
2022/01/11 12:29:10;;;;;;;13.95;9.05;;;4.50;99.90;;;;;;5015352;28;20157;-81
2022/01/11 12:31:54;;;;;;;16.02;8.88;;;4.10;99.90;;;;;;5033252;28;20072;-82
2022/01/11 12:34:45;;;;;;;14.73;9.50;;;4.60;99.90;;;;;;5013835;28;20041;-82
2022/01/11 12:37:25;;;;;;;15.10;9.50;;;4.70;99.90;;;;;;5016455;28;20045;-82
2022/01/11 12:40:02;;;;;;;12.82;9.35;;;4.70;99.90;;;;;;5017086;28;20113;-81
2022/01/11 12:42:28;;;;;;;11.38;7.93;;;4.80;99.90;;;;;;5038773;28;20053;-82
2022/01/11 12:47:25;;;;;;;11.43;8.93;;;4.80;99.90;;;;;;5020432;28;20083;-82
2022/01/11 12:50:09;;;;;;;16.48;9.32;;;4.80;99.90;;;;;;5036143;28;20443;-82